Time;durP1;ratioP1;P1;durP2;ratioP2;P2;SDS_P1;SDS_P2;PMS_P1;PMS_P2;Temp;Humidity;BMP_temperature;BMP_pressure;BME280_temperature;BME280_humidity;BME280_pressure;Samples;Min_cycle;Max_cycle;Signal;HPM_P1;HPM_P2
2022/08/05 00:01:28;;;;;;;7.40;4.70;;;;;;;;;;5303156;28;20670;-69
2022/08/05 00:03:59;;;;;;;9.52;4.22;;;;;;;;;;5304197;28;20273;-69
2022/08/05 00:06:30;;;;;;;7.15;4.38;;;;;;;;;;5302260;28;20307;-70
2022/08/05 00:09:02;;;;;;;7.97;4.53;;;;;;;;;;5303692;28;20020;-70
2022/08/05 00:11:34;;;;;;;7.47;4.75;;;;;;;;;;5303615;28;20340;-70
2022/08/05 00:14:05;;;;;;;6.43;4.70;;;;;;;;;;5302896;28;20013;-70
2022/08/05 00:16:36;;;;;;;7.43;4.43;;;;;;;;;;5303680;28;20451;-69
2022/08/05 00:19:07;;;;;;;8.55;4.85;;;;;;;;;;5303670;28;20020;-70
2022/08/05 00:21:38;;;;;;;10.48;4.57;;;;;;;;;;5302622;28;20044;-70
2022/08/05 00:24:10;;;;;;;10.83;5.10;;;;;;;;;;5303796;28;20016;-70
2022/08/05 00:26:41;;;;;;;7.97;5.05;;;;;;;;;;5303599;28;20266;-70
2022/08/05 00:29:12;;;;;;;8.88;4.78;;;;;;;;;;5302765;28;20035;-69
2022/08/05 00:31:43;;;;;;;7.73;4.70;;;;;;;;;;5303400;28;20012;-69
2022/08/05 00:34:15;;;;;;;7.85;5.18;;;;;;;;;;5303087;28;20775;-70
2022/08/05 00:36:46;;;;;;;7.13;4.72;;;;;;;;;;5302437;28;20013;-69
2022/08/05 00:39:17;;;;;;;16.03;5.60;;;;;;;;;;5303105;28;20024;-70
2022/08/05 00:41:48;;;;;;;7.72;4.65;;;;;;;;;;5302648;28;20311;-70
2022/08/05 00:44:19;;;;;;;6.47;4.57;;;;;;;;;;5302939;28;20103;-70
2022/08/05 00:46:51;;;;;;;10.53;5.03;;;;;;;;;;5303400;28;20283;-70
2022/08/05 00:49:22;;;;;;;9.80;5.07;;;;;;;;;;5302092;28;20320;-70
2022/08/05 00:51:53;;;;;;;9.00;5.43;;;;;;;;;;5303170;28;20265;-70
2022/08/05 00:54:24;;;;;;;7.80;5.45;;;;;;;;;;5302570;28;20367;-70
2022/08/05 00:56:55;;;;;;;6.77;4.87;;;;;;;;;;5302366;28;20554;-70
2022/08/05 00:59:27;;;;;;;8.73;5.25;;;;;;;;;;5302549;28;20610;-70
2022/08/05 01:01:58;;;;;;;9.37;4.87;;;;;;;;;;5303236;28;20517;-70
2022/08/05 01:04:29;;;;;;;9.47;5.00;;;;;;;;;;5301826;28;20258;-69
2022/08/05 01:07:00;;;;;;;10.77;5.13;;;;;;;;;;5302875;28;20298;-70
2022/08/05 01:09:31;;;;;;;8.93;5.10;;;;;;;;;;5302774;28;20286;-70
2022/08/05 01:12:05;;;;;;;11.30;5.63;;;;;;;;;;5302173;28;20342;-70
2022/08/05 01:15:11;;;;;;;16.83;5.50;;;;;;;;;;5302632;28;20274;-70
2022/08/05 01:17:45;;;;;;;11.30;5.30;;;;;;;;;;5236808;28;20033;-70
2022/08/05 01:20:35;;;;;;;10.20;4.38;;;;;;;;;;5293448;28;20035;-70
2022/08/05 01:23:12;;;;;;;9.25;3.90;;;;;;;;;;5302802;28;20514;-70
2022/08/05 01:25:48;;;;;;;8.07;4.18;;;;;;;;;;5301891;28;20077;-70
2022/08/05 01:28:19;;;;;;;7.30;4.15;;;;;;;;;;5302339;28;20024;-70
2022/08/05 01:30:57;;;;;;;11.32;4.30;;;;;;;;;;5301967;28;20036;-70
2022/08/05 01:33:33;;;;;;;10.83;4.47;;;;;;;;;;5302316;28;20465;-71
2022/08/05 01:36:07;;;;;;;6.80;3.50;;;;;;;;;;5302596;28;20760;-70
2022/08/05 01:38:39;;;;;;;11.85;4.50;;;;;;;;;;5301606;28;20103;-70
2022/08/05 01:41:12;;;;;;;10.80;3.50;;;;;;;;;;5302458;28;20099;-70
2022/08/05 01:43:43;;;;;;;8.48;3.25;;;;;;;;;;5302670;28;20016;-70
2022/08/05 01:46:15;;;;;;;9.40;3.70;;;;;;;;;;5301637;28;20035;-70
2022/08/05 01:48:47;;;;;;;8.57;3.50;;;;;;;;;;5302399;28;20378;-70
2022/08/05 01:51:19;;;;;;;7.38;3.15;;;;;;;;;;5302006;28;20031;-70
2022/08/05 01:53:51;;;;;;;8.30;4.13;;;;;;;;;;5302033;28;20027;-70
2022/08/05 01:56:22;;;;;;;10.75;3.28;;;;;;;;;;5302219;28;20031;-70
2022/08/05 01:58:55;;;;;;;15.30;3.63;;;;;;;;;;5302026;28;20091;-70
2022/08/05 02:01:26;;;;;;;13.27;4.32;;;;;;;;;;5301604;28;20025;-70
2022/08/05 02:03:58;;;;;;;11.48;3.63;;;;;;;;;;5302554;28;20027;-70
2022/08/05 02:06:30;;;;;;;7.63;3.40;;;;;;;;;;5301340;28;20057;-70
2022/08/05 02:09:02;;;;;;;10.88;3.92;;;;;;;;;;5302161;28;20071;-70
2022/08/05 02:11:46;;;;;;;12.38;3.80;;;;;;;;;;5302262;28;20096;-70
2022/08/05 02:14:44;;;;;;;9.05;4.10;;;;;;;;;;5301318;28;20020;-70
2022/08/05 02:17:22;;;;;;;7.72;3.40;;;;;;;;;;5278305;28;20120;-70
2022/08/05 02:19:57;;;;;;;9.65;3.40;;;;;;;;;;5302546;28;20101;-70
2022/08/05 02:22:31;;;;;;;8.95;4.18;;;;;;;;;;5300820;28;20036;-70
2022/08/05 02:25:20;;;;;;;10.98;3.40;;;;;;;;;;5302265;28;20199;-71
2022/08/05 02:27:53;;;;;;;8.35;3.03;;;;;;;;;;5301427;28;20038;-70
2022/08/05 02:30:26;;;;;;;10.00;3.63;;;;;;;;;;5304279;28;20031;-70
2022/08/05 02:32:58;;;;;;;10.23;3.05;;;;;;;;;;5306178;28;20024;-70
2022/08/05 02:35:32;;;;;;;8.10;2.90;;;;;;;;;;5304968;28;20016;-70
2022/08/05 02:38:03;;;;;;;9.00;2.45;;;;;;;;;;5305906;28;20158;-69
2022/08/05 02:40:36;;;;;;;8.82;2.67;;;;;;;;;;5305743;28;20099;-70
2022/08/05 02:43:09;;;;;;;6.80;2.80;;;;;;;;;;5304788;28;20016;-70
2022/08/05 02:45:41;;;;;;;10.30;2.92;;;;;;;;;;5305591;28;20035;-69
2022/08/05 02:48:13;;;;;;;8.02;3.58;;;;;;;;;;5304565;28;20020;-69
2022/08/05 02:50:46;;;;;;;10.30;3.25;;;;;;;;;;5305169;28;20601;-69
2022/08/05 02:53:19;;;;;;;10.35;2.97;;;;;;;;;;5305290;28;20012;-69
2022/08/05 02:55:52;;;;;;;11.25;4.10;;;;;;;;;;5304808;28;20020;-69
2022/08/05 02:58:23;;;;;;;9.30;3.05;;;;;;;;;;5305131;28;20013;-70
2022/08/05 03:00:55;;;;;;;8.48;3.33;;;;;;;;;;5305558;28;20008;-70
2022/08/05 03:03:27;;;;;;;7.47;2.85;;;;;;;;;;5304062;28;20027;-70
2022/08/05 03:05:59;;;;;;;9.82;3.00;;;;;;;;;;5305471;28;20378;-71
2022/08/05 03:08:31;;;;;;;13.30;3.78;;;;;;;;;;5304962;28;20048;-70
2022/08/05 03:11:02;;;;;;;8.52;3.13;;;;;;;;;;5304352;28;20081;-70
2022/08/05 03:13:33;;;;;;;10.13;3.33;;;;;;;;;;5305106;28;20077;-70
2022/08/05 03:16:04;;;;;;;7.93;3.10;;;;;;;;;;5305006;28;20358;-70
2022/08/05 03:18:35;;;;;;;6.68;3.17;;;;;;;;;;5304037;28;20352;-70
2022/08/05 03:21:07;;;;;;;9.02;3.88;;;;;;;;;;5304539;28;20401;-70
2022/08/05 03:23:41;;;;;;;10.27;4.00;;;;;;;;;;5304107;28;20052;-69
2022/08/05 03:26:12;;;;;;;11.70;3.70;;;;;;;;;;5304620;28;20031;-69
2022/08/05 03:28:43;;;;;;;8.63;3.78;;;;;;;;;;5304534;28;20448;-69
2022/08/05 03:31:15;;;;;;;12.40;3.53;;;;;;;;;;5303835;28;20540;-70
2022/08/05 03:33:46;;;;;;;10.07;3.50;;;;;;;;;;5304693;28;20345;-69
2022/08/05 03:36:17;;;;;;;10.13;3.88;;;;;;;;;;5304744;28;20028;-70
2022/08/05 03:38:48;;;;;;;8.98;3.53;;;;;;;;;;5304172;28;20008;-69
2022/08/05 03:41:20;;;;;;;8.73;3.28;;;;;;;;;;5304046;28;20031;-70
2022/08/05 03:43:51;;;;;;;9.55;4.53;;;;;;;;;;5304563;28;20023;-69
2022/08/05 03:46:22;;;;;;;7.18;3.28;;;;;;;;;;5303467;28;20020;-70
2022/08/05 03:48:53;;;;;;;7.82;2.80;;;;;;;;;;5304517;28;20048;-70
2022/08/05 03:51:31;;;;;;;13.65;4.50;;;;;;;;;;5303898;28;20020;-69
2022/08/05 03:54:05;;;;;;;12.30;4.22;;;;;;;;;;5304003;28;20266;-70
2022/08/05 03:56:41;;;;;;;10.15;3.83;;;;;;;;;;5304238;28;20046;-70
2022/08/05 03:59:15;;;;;;;8.10;3.83;;;;;;;;;;5303363;28;20020;-70
2022/08/05 04:01:47;;;;;;;11.55;4.07;;;;;;;;;;5304076;28;20127;-69
2022/08/05 04:04:20;;;;;;;9.13;3.50;;;;;;;;;;5303592;28;20488;-70
2022/08/05 04:06:51;;;;;;;10.88;4.18;;;;;;;;;;5303318;28;20058;-70
2022/08/05 04:09:23;;;;;;;11.25;3.80;;;;;;;;;;5303533;28;20028;-69
2022/08/05 04:11:55;;;;;;;10.77;3.17;;;;;;;;;;5304053;28;20020;-71
2022/08/05 04:14:26;;;;;;;10.10;3.70;;;;;;;;;;5302544;28;20021;-71
2022/08/05 04:16:58;;;;;;;10.00;4.07;;;;;;;;;;5303795;28;20039;-69
2022/08/05 04:19:30;;;;;;;10.23;4.47;;;;;;;;;;5303415;28;20016;-70
2022/08/05 04:22:01;;;;;;;9.73;3.90;;;;;;;;;;5302495;28;20101;-70
2022/08/05 04:24:32;;;;;;;9.70;3.63;;;;;;;;;;5303269;28;20036;-70
2022/08/05 04:27:03;;;;;;;10.90;3.92;;;;;;;;;;5302693;28;20761;-70
2022/08/05 04:29:34;;;;;;;10.38;4.32;;;;;;;;;;5303258;28;20459;-70
2022/08/05 04:32:06;;;;;;;7.78;3.95;;;;;;;;;;5303506;28;20016;-70
2022/08/05 04:34:37;;;;;;;11.73;4.65;;;;;;;;;;5302638;28;20340;-69
2022/08/05 04:37:09;;;;;;;7.47;4.03;;;;;;;;;;5303365;28;20008;-70
2022/08/05 04:39:40;;;;;;;9.60;3.92;;;;;;;;;;5303234;28;20020;-69
2022/08/05 04:42:11;;;;;;;10.88;3.92;;;;;;;;;;5302384;28;20103;-70
2022/08/05 04:44:42;;;;;;;12.05;4.10;;;;;;;;;;5303276;28;20116;-69
2022/08/05 04:47:13;;;;;;;9.05;3.30;;;;;;;;;;5303196;28;20039;-70
2022/08/05 04:49:45;;;;;;;10.90;4.05;;;;;;;;;;5302124;28;20373;-70
2022/08/05 04:52:16;;;;;;;10.85;4.03;;;;;;;;;;5302422;28;20360;-70
2022/08/05 04:54:47;;;;;;;8.40;3.45;;;;;;;;;;5302136;28;20012;-70
2022/08/05 04:57:19;;;;;;;8.97;3.77;;;;;;;;;;5302749;28;20050;-70
2022/08/05 04:59:50;;;;;;;9.77;3.47;;;;;;;;;;5303081;28;20278;-69
2022/08/05 05:02:21;;;;;;;8.38;3.72;;;;;;;;;;5301844;28;20069;-70
2022/08/05 05:04:52;;;;;;;12.10;4.50;;;;;;;;;;5302950;28;20068;-70
2022/08/05 05:07:24;;;;;;;9.40;3.60;;;;;;;;;;5302739;28;20254;-70
2022/08/05 05:09:55;;;;;;;10.57;3.90;;;;;;;;;;5302231;28;20050;-69
2022/08/05 05:12:26;;;;;;;11.90;4.05;;;;;;;;;;5302149;28;20266;-70
2022/08/05 05:14:57;;;;;;;8.97;3.50;;;;;;;;;;5302699;28;20023;-70
2022/08/05 05:17:35;;;;;;;9.25;3.13;;;;;;;;;;5301362;28;20755;-70
2022/08/05 05:20:07;;;;;;;9.57;3.85;;;;;;;;;;5302777;28;20371;-70
2022/08/05 05:22:38;;;;;;;11.25;3.78;;;;;;;;;;5302248;28;20469;-70
2022/08/05 05:25:10;;;;;;;12.57;3.38;;;;;;;;;;5301835;28;20023;-70
2022/08/05 05:27:41;;;;;;;12.65;4.05;;;;;;;;;;5302515;28;20047;-71
2022/08/05 05:30:15;;;;;;;8.55;3.63;;;;;;;;;;5301566;28;20028;-71
2022/08/05 05:32:46;;;;;;;8.00;3.30;;;;;;;;;;5302315;28;20477;-71
2022/08/05 05:35:18;;;;;;;9.27;3.53;;;;;;;;;;5302169;28;20052;-71
2022/08/05 05:37:53;;;;;;;6.88;3.38;;;;;;;;;;5301645;28;20019;-71
2022/08/05 05:40:24;;;;;;;10.75;3.47;;;;;;;;;;5301919;28;20020;-71
2022/08/05 05:42:56;;;;;;;7.47;3.30;;;;;;;;;;5302792;28;20019;-71
2022/08/05 05:45:27;;;;;;;8.52;2.83;;;;;;;;;;5301450;28;20348;-71
2022/08/05 05:47:58;;;;;;;7.40;3.03;;;;;;;;;;5302650;28;20012;-71
2022/08/05 05:50:29;;;;;;;7.32;3.20;;;;;;;;;;5301908;28;20374;-71
2022/08/05 05:53:01;;;;;;;9.10;3.20;;;;;;;;;;5301416;28;20024;-71
2022/08/05 05:55:32;;;;;;;9.50;3.40;;;;;;;;;;5302419;28;20024;-71
2022/08/05 05:58:03;;;;;;;11.32;3.15;;;;;;;;;;5301659;28;20270;-71
2022/08/05 06:00:34;;;;;;;13.18;2.88;;;;;;;;;;5301997;28;20035;-71
2022/08/05 06:03:05;;;;;;;6.40;2.10;;;;;;;;;;5302159;28;20098;-71
2022/08/05 06:05:36;;;;;;;8.68;2.67;;;;;;;;;;5304396;28;20278;-71
2022/08/05 06:08:09;;;;;;;9.20;2.97;;;;;;;;;;5306126;28;20020;-70
2022/08/05 06:10:40;;;;;;;8.68;1.92;;;;;;;;;;5305992;28;20032;-69
2022/08/05 06:13:12;;;;;;;10.68;2.00;;;;;;;;;;5304864;28;20459;-69
2022/08/05 06:15:43;;;;;;;5.93;1.85;;;;;;;;;;5305798;28;20044;-70
2022/08/05 06:18:14;;;;;;;8.53;2.17;;;;;;;;;;5305818;28;20012;-70
2022/08/05 06:20:45;;;;;;;9.43;2.10;;;;;;;;;;5304769;28;20641;-70
2022/08/05 06:23:16;;;;;;;9.15;1.60;;;;;;;;;;5305566;28;20375;-70
2022/08/05 06:25:49;;;;;;;4.40;1.38;;;;;;;;;;5305653;28;20434;-69
2022/08/05 06:28:21;;;;;;;5.07;1.45;;;;;;;;;;5304510;28;20008;-70
2022/08/05 06:30:52;;;;;;;10.27;2.60;;;;;;;;;;5306100;28;20547;-70
2022/08/05 06:33:23;;;;;;;10.50;2.08;;;;;;;;;;5304696;28;20343;-71
2022/08/05 06:35:54;;;;;;;9.27;3.00;;;;;;;;;;5306141;28;20069;-70
2022/08/05 06:38:25;;;;;;;6.43;1.30;;;;;;;;;;5305177;28;20302;-70
2022/08/05 06:40:57;;;;;;;8.23;1.63;;;;;;;;;;5304928;28;20263;-73
2022/08/05 06:43:28;;;;;;;7.87;1.57;;;;;;;;;;5305316;28;20099;-72
2022/08/05 06:45:59;;;;;;;5.68;1.65;;;;;;;;;;5305626;28;20323;-73
2022/08/05 06:48:33;;;;;;;6.15;1.58;;;;;;;;;;5304560;28;20290;-74
2022/08/05 06:51:04;;;;;;;9.05;2.17;;;;;;;;;;5304850;28;20107;-74
2022/08/05 06:53:35;;;;;;;7.15;2.17;;;;;;;;;;5305011;28;20075;-73
2022/08/05 06:56:06;;;;;;;8.98;2.15;;;;;;;;;;5304379;28;20467;-73
2022/08/05 06:58:38;;;;;;;8.35;1.73;;;;;;;;;;5305209;28;20749;-74
2022/08/05 07:01:09;;;;;;;7.43;2.00;;;;;;;;;;5304947;28;20020;-73
2022/08/05 07:03:40;;;;;;;8.30;1.80;;;;;;;;;;5304224;28;20365;-73
2022/08/05 07:06:11;;;;;;;8.00;1.75;;;;;;;;;;5304638;28;20031;-74
2022/08/05 07:08:42;;;;;;;8.43;1.77;;;;;;;;;;5304073;28;20570;-73
2022/08/05 07:11:14;;;;;;;8.40;1.52;;;;;;;;;;5304499;28;20325;-72
2022/08/05 07:16:50;;;;;;;5.60;1.63;;;;;;;;;;5303598;28;20028;-72
2022/08/05 07:19:22;;;;;;;7.53;1.90;;;;;;;;;;5304498;28;20485;-73
2022/08/05 07:21:53;;;;;;;8.55;1.75;;;;;;;;;;5304774;28;20040;-73
2022/08/05 07:24:25;;;;;;;11.48;1.67;;;;;;;;;;5303389;28;20278;-72
2022/08/05 07:26:56;;;;;;;9.13;1.45;;;;;;;;;;5304852;28;20030;-73
2022/08/05 07:29:27;;;;;;;6.40;1.20;;;;;;;;;;5303859;28;20070;-73
2022/08/05 07:31:58;;;;;;;7.57;1.45;;;;;;;;;;5304220;28;20353;-72
2022/08/05 07:34:29;;;;;;;6.17;0.97;;;;;;;;;;5304280;28;20471;-72
2022/08/05 07:37:01;;;;;;;6.45;1.83;;;;;;;;;;5303495;28;20338;-72
2022/08/05 07:39:33;;;;;;;9.55;1.77;;;;;;;;;;5304131;28;20415;-73
2022/08/05 07:42:04;;;;;;;6.38;0.93;;;;;;;;;;5304490;28;20359;-71
2022/08/05 07:44:35;;;;;;;4.67;0.90;;;;;;;;;;5303353;28;20073;-70
2022/08/05 07:47:06;;;;;;;6.93;0.90;;;;;;;;;;5303882;28;20274;-70
2022/08/05 07:49:37;;;;;;;5.35;0.80;;;;;;;;;;5303826;28;20732;-71
2022/08/05 07:52:08;;;;;;;3.17;0.77;;;;;;;;;;5303309;28;20324;-70
2022/08/05 07:54:40;;;;;;;4.72;0.60;;;;;;;;;;5304032;28;20370;-71
2022/08/05 07:57:11;;;;;;;7.00;0.98;;;;;;;;;;5304070;28;20016;-71
2022/08/05 07:59:42;;;;;;;5.30;1.17;;;;;;;;;;5303123;28;20020;-70
2022/08/05 08:02:13;;;;;;;4.72;0.80;;;;;;;;;;5303799;28;20375;-71
2022/08/05 08:04:45;;;;;;;6.10;1.02;;;;;;;;;;5302846;28;20336;-71
2022/08/05 08:07:17;;;;;;;4.05;0.70;;;;;;;;;;5303966;28;20035;-74
2022/08/05 08:09:49;;;;;;;3.97;0.80;;;;;;;;;;5303464;28;20035;-71
2022/08/05 08:12:20;;;;;;;2.72;0.70;;;;;;;;;;5302310;28;20016;-74
2022/08/05 08:14:52;;;;;;;3.50;0.50;;;;;;;;;;5304124;28;20028;-74
2022/08/05 08:17:23;;;;;;;3.22;0.50;;;;;;;;;;5303588;28;20027;-75
2022/08/05 08:19:54;;;;;;;5.00;0.70;;;;;;;;;;5302834;28;20028;-72
2022/08/05 08:22:26;;;;;;;3.87;0.60;;;;;;;;;;5302829;28;20506;-72
2022/08/05 08:24:57;;;;;;;3.42;0.50;;;;;;;;;;5303382;28;20311;-69
2022/08/05 08:27:29;;;;;;;2.75;0.40;;;;;;;;;;5301881;28;20024;-69
2022/08/05 08:30:00;;;;;;;3.17;0.50;;;;;;;;;;5303413;28;20098;-71
2022/08/05 08:32:32;;;;;;;4.57;0.52;;;;;;;;;;5303353;28;20038;-71
2022/08/05 08:35:04;;;;;;;3.60;0.60;;;;;;;;;;5302443;28;20033;-69
2022/08/05 08:37:35;;;;;;;3.72;0.50;;;;;;;;;;5303049;28;20024;-70
2022/08/05 08:40:07;;;;;;;6.85;0.57;;;;;;;;;;5302187;28;20024;-70
2022/08/05 08:42:38;;;;;;;4.32;0.40;;;;;;;;;;5303232;28;20501;-70
2022/08/05 08:45:10;;;;;;;3.92;0.40;;;;;;;;;;5303081;28;20047;-70
2022/08/05 08:47:41;;;;;;;3.90;0.75;;;;;;;;;;5302222;28;20020;-70
2022/08/05 08:50:13;;;;;;;3.42;0.60;;;;;;;;;;5302697;28;20111;-71
2022/08/05 08:52:51;;;;;;;3.00;0.40;;;;;;;;;;5302902;28;20455;-71
2022/08/05 08:55:22;;;;;;;3.53;0.50;;;;;;;;;;5301794;28;20491;-72
2022/08/05 08:57:54;;;;;;;3.60;0.93;;;;;;;;;;5302878;28;20020;-70
2022/08/05 09:00:25;;;;;;;3.63;0.50;;;;;;;;;;5302262;28;20543;-71
2022/08/05 09:02:57;;;;;;;2.60;0.40;;;;;;;;;;5302412;28;20020;-74
2022/08/05 09:05:28;;;;;;;3.20;0.50;;;;;;;;;;5302380;28;20020;-71
2022/08/05 09:07:59;;;;;;;4.20;0.80;;;;;;;;;;5301386;28;20419;-71
2022/08/05 09:10:30;;;;;;;2.43;0.40;;;;;;;;;;5301664;28;20293;-71
2022/08/05 09:13:01;;;;;;;3.95;0.45;;;;;;;;;;5302177;28;20266;-71
2022/08/05 09:15:33;;;;;;;4.07;0.50;;;;;;;;;;5301409;28;20466;-71
2022/08/05 09:18:07;;;;;;;1.73;0.40;;;;;;;;;;5302433;28;20043;-71
2022/08/05 09:20:40;;;;;;;3.15;0.50;;;;;;;;;;5302107;28;20467;-70
2022/08/05 09:23:13;;;;;;;3.05;0.50;;;;;;;;;;5301550;28;20096;-70
2022/08/05 09:25:46;;;;;;;3.15;0.40;;;;;;;;;;5302782;28;20027;-71
2022/08/05 09:28:22;;;;;;;2.97;0.50;;;;;;;;;;5302504;28;20020;-71
2022/08/05 09:30:57;;;;;;;4.40;0.40;;;;;;;;;;5301802;28;20435;-71
2022/08/05 09:33:29;;;;;;;3.72;0.35;;;;;;;;;;5301969;28;20520;-71
2022/08/05 09:36:04;;;;;;;3.35;0.50;;;;;;;;;;5302149;28;20019;-70
2022/08/05 09:38:35;;;;;;;1.65;0.40;;;;;;;;;;5303183;28;20022;-70
2022/08/05 09:41:10;;;;;;;2.23;0.30;;;;;;;;;;5306419;28;20462;-71
2022/08/05 09:43:41;;;;;;;2.22;0.30;;;;;;;;;;5305721;28;20019;-71
2022/08/05 09:46:29;;;;;;;3.50;0.40;;;;;;;;;;5306257;28;20020;-71
2022/08/05 09:49:03;;;;;;;3.92;0.40;;;;;;;;;;5306376;28;20028;-71
2022/08/05 09:51:36;;;;;;;2.15;0.60;;;;;;;;;;5305783;28;20467;-71
2022/08/05 09:54:08;;;;;;;2.42;0.20;;;;;;;;;;5306656;28;20045;-71
2022/08/05 09:56:44;;;;;;;1.90;0.32;;;;;;;;;;5306475;28;20129;-71
2022/08/05 09:59:16;;;;;;;3.03;0.40;;;;;;;;;;5305867;28;20402;-71
2022/08/05 10:01:47;;;;;;;0.88;0.20;;;;;;;;;;5306367;28;20016;-71
2022/08/05 10:04:18;;;;;;;7.03;0.20;;;;;;;;;;5305501;28;20512;-71
2022/08/05 10:06:54;;;;;;;2.85;0.52;;;;;;;;;;5306582;28;20266;-70
2022/08/05 10:09:26;;;;;;;2.63;0.30;;;;;;;;;;5305206;28;20095;-72
2022/08/05 10:12:08;;;;;;;2.57;0.20;;;;;;;;;;5305927;28;20099;-71
2022/08/05 10:14:39;;;;;;;3.10;0.20;;;;;;;;;;5306292;28;20757;-72
2022/08/05 10:17:14;;;;;;;3.13;0.20;;;;;;;;;;5306120;28;20019;-74
2022/08/05 10:19:45;;;;;;;2.20;0.30;;;;;;;;;;5305040;28;20020;-74
2022/08/05 10:22:16;;;;;;;2.20;0.20;;;;;;;;;;5305953;28;20059;-73
2022/08/05 10:24:48;;;;;;;3.10;0.20;;;;;;;;;;5305987;28;20028;-72
2022/08/05 10:27:19;;;;;;;3.17;0.20;;;;;;;;;;5304948;28;20103;-73
2022/08/05 10:29:50;;;;;;;0.98;0.13;;;;;;;;;;5305862;28;20405;-72
2022/08/05 10:32:22;;;;;;;3.47;0.30;;;;;;;;;;5304744;28;20474;-72
2022/08/05 10:34:54;;;;;;;1.77;0.10;;;;;;;;;;5305700;28;20378;-72
2022/08/05 10:37:28;;;;;;;1.15;0.20;;;;;;;;;;5305397;28;20464;-72
2022/08/05 10:40:03;;;;;;;2.35;0.20;;;;;;;;;;5304461;28;20108;-72
2022/08/05 10:42:37;;;;;;;1.52;0.30;;;;;;;;;;5305404;28;20018;-72
2022/08/05 10:45:10;;;;;;;2.85;0.10;;;;;;;;;;5305354;28;20031;-72
2022/08/05 10:47:43;;;;;;;1.23;0.10;;;;;;;;;;5304772;28;20374;-72
2022/08/05 10:50:15;;;;;;;1.42;0.20;;;;;;;;;;5304412;28;20031;-72
2022/08/05 10:52:56;;;;;;;2.63;0.13;;;;;;;;;;5305103;28;20012;-73
2022/08/05 10:55:29;;;;;;;0.75;0.17;;;;;;;;;;5304355;28;20421;-73
2022/08/05 10:58:08;;;;;;;0.65;0.10;;;;;;;;;;5305310;28;20095;-73
2022/08/05 11:00:44;;;;;;;1.73;0.10;;;;;;;;;;5304404;28;20095;-73
2022/08/05 11:03:16;;;;;;;3.80;0.30;;;;;;;;;;5305075;28;20378;-73
2022/08/05 11:06:04;;;;;;;0.90;0.10;;;;;;;;;;5304962;28;20020;-73
2022/08/05 11:08:35;;;;;;;1.52;0.10;;;;;;;;;;5304278;28;20281;-71
2022/08/05 11:11:25;;;;;;;0.57;0.10;;;;;;;;;;5304933;28;20024;-72
2022/08/05 11:13:56;;;;;;;0.40;0.10;;;;;;;;;;5305132;28;20020;-71
2022/08/05 11:16:28;;;;;;;5.07;0.17;;;;;;;;;;5303916;28;20035;-71
2022/08/05 11:19:18;;;;;;;1.75;0.20;;;;;;;;;;5304741;28;20047;-71
2022/08/05 11:21:49;;;;;;;2.95;0.57;;;;;;;;;;5303770;28;20052;-71
2022/08/05 11:24:20;;;;;;;2.43;0.20;;;;;;;;;;5304048;28;20443;-70
2022/08/05 11:27:11;;;;;;;3.33;0.20;;;;;;;;;;5305013;28;20371;-71
2022/08/05 11:29:43;;;;;;;1.35;0.10;;;;;;;;;;5303570;28;20044;-70
2022/08/05 11:32:28;;;;;;;3.30;0.45;;;;;;;;;;5304437;28;20019;-71
2022/08/05 11:34:59;;;;;;;0.60;0.10;;;;;;;;;;5304789;28;20045;-71
2022/08/05 11:37:40;;;;;;;2.97;0.10;;;;;;;;;;5313973;28;20020;-73
2022/08/05 11:40:11;;;;;;;1.10;0.20;;;;;;;;;;5325313;28;20106;-70
2022/08/05 11:42:44;;;;;;;1.50;0.13;;;;;;;;;;5307727;28;20526;-72
2022/08/05 11:45:17;;;;;;;3.70;0.30;;;;;;;;;;5304088;28;20047;-72
2022/08/05 11:47:48;;;;;;;3.20;0.20;;;;;;;;;;5304224;28;20023;-71
2022/08/05 11:50:20;;;;;;;1.17;0.10;;;;;;;;;;5302948;28;20032;-72
2022/08/05 11:52:51;;;;;;;2.27;0.17;;;;;;;;;;5304299;28;20008;-72
2022/08/05 11:55:23;;;;;;;2.45;0.20;;;;;;;;;;5303587;28;20769;-72
2022/08/05 11:57:54;;;;;;;5.23;0.30;;;;;;;;;;5303607;28;20016;-72
2022/08/05 12:00:29;;;;;;;4.32;0.20;;;;;;;;;;5303704;28;20394;-71
2022/08/05 12:03:30;;;;;;;3.78;0.20;;;;;;;;;;5302778;28;20031;-71
2022/08/05 12:06:03;;;;;;;4.05;0.20;;;;;;;;;;5289287;28;20035;-72
2022/08/05 12:08:44;;;;;;;6.28;0.20;;;;;;;;;;5303565;28;20030;-72
2022/08/05 12:11:17;;;;;;;4.22;0.20;;;;;;;;;;5302786;28;20024;-71
2022/08/05 12:13:52;;;;;;;4.50;0.20;;;;;;;;;;5303375;28;20362;-72
2022/08/05 12:16:24;;;;;;;4.43;0.20;;;;;;;;;;5303056;28;20475;-72
2022/08/05 12:18:55;;;;;;;2.15;0.20;;;;;;;;;;5303259;28;20012;-71
2022/08/05 12:21:27;;;;;;;4.47;0.13;;;;;;;;;;5302948;28;20047;-72
2022/08/05 12:24:05;;;;;;;1.90;0.20;;;;;;;;;;5303728;28;20302;-71
2022/08/05 12:26:37;;;;;;;2.38;0.20;;;;;;;;;;5302265;28;20012;-71
2022/08/05 12:29:13;;;;;;;1.25;0.20;;;;;;;;;;5303121;28;20044;-71
2022/08/05 12:31:48;;;;;;;5.10;0.20;;;;;;;;;;5303198;28;20068;-70
2022/08/05 12:34:28;;;;;;;1.65;0.10;;;;;;;;;;5302001;28;20012;-71
2022/08/05 12:37:06;;;;;;;1.20;0.10;;;;;;;;;;5302726;28;20016;-70
2022/08/05 12:39:38;;;;;;;0.95;0.10;;;;;;;;;;5302660;28;20016;-70
2022/08/05 12:42:11;;;;;;;4.00;0.20;;;;;;;;;;5302934;28;20077;-70
2022/08/05 12:44:43;;;;;;;2.72;0.10;;;;;;;;;;5302823;28;20119;-70
2022/08/05 12:47:27;;;;;;;1.75;0.20;;;;;;;;;;5302086;28;20020;-70
2022/08/05 12:49:59;;;;;;;1.70;0.10;;;;;;;;;;5302847;28;20024;-70
2022/08/05 12:52:30;;;;;;;2.80;0.10;;;;;;;;;;5303032;28;20023;-71
2022/08/05 12:55:14;;;;;;;0.68;0.10;;;;;;;;;;5302248;28;20028;-70
2022/08/05 12:57:45;;;;;;;2.95;0.30;;;;;;;;;;5302767;28;20024;-69
2022/08/05 13:00:20;;;;;;;1.80;0.10;;;;;;;;;;5301868;28;20371;-70
2022/08/05 13:02:52;;;;;;;1.58;0.10;;;;;;;;;;5302615;28;20482;-70
2022/08/05 13:05:23;;;;;;;2.20;0.10;;;;;;;;;;5301781;28;20019;-71
2022/08/05 13:07:56;;;;;;;2.38;0.10;;;;;;;;;;5301902;28;20012;-70
2022/08/05 13:10:29;;;;;;;1.52;0.10;;;;;;;;;;5301839;28;20032;-70
2022/08/05 13:13:04;;;;;;;1.30;0.13;;;;;;;;;;5302048;28;20008;-70
2022/08/05 13:15:38;;;;;;;4.15;0.10;;;;;;;;;;5301980;28;20016;-70
2022/08/05 13:18:09;;;;;;;2.47;0.10;;;;;;;;;;5302080;28;20085;-70
2022/08/05 13:20:40;;;;;;;3.30;0.10;;;;;;;;;;5302148;28;20466;-70
2022/08/05 13:23:12;;;;;;;1.02;0.10;;;;;;;;;;5301754;28;20031;-70
2022/08/05 13:25:43;;;;;;;1.13;0.10;;;;;;;;;;5302588;28;20027;-69
2022/08/05 13:41:36;;;;;;;1.38;0.10;;;;;;;;;;5402739;22;1223076;-69
2022/08/05 13:44:08;;;;;;;0.88;0.10;;;;;;;;;;5278728;28;20427;-69
2022/08/05 13:46:39;;;;;;;0.87;0.10;;;;;;;;;;5278461;28;20024;-68
2022/08/05 13:49:11;;;;;;;1.77;0.10;;;;;;;;;;5277482;28;20298;-69
2022/08/05 13:51:42;;;;;;;2.13;0.10;;;;;;;;;;5278256;28;20027;-70
2022/08/05 13:54:15;;;;;;;1.20;0.10;;;;;;;;;;5278561;28;20021;-69
2022/08/05 13:56:46;;;;;;;0.93;0.10;;;;;;;;;;5276294;28;20272;-69
2022/08/05 13:59:21;;;;;;;0.93;0.10;;;;;;;;;;5278722;28;20032;-69
2022/08/05 14:01:53;;;;;;;1.45;0.10;;;;;;;;;;5278141;28;20267;-70
2022/08/05 14:07:14;;;;;;;4.45;0.15;;;;;;;;;;5278594;28;20375;-72
2022/08/05 14:09:46;;;;;;;0.63;0.10;;;;;;;;;;5277069;28;20029;-69
2022/08/05 14:12:17;;;;;;;3.77;0.10;;;;;;;;;;5278449;28;20094;-69
2022/08/05 14:14:48;;;;;;;1.17;0.10;;;;;;;;;;5277642;28;20275;-69
2022/08/05 14:17:22;;;;;;;0.50;0.00;;;;;;;;;;5276723;28;20017;-69
2022/08/05 14:19:54;;;;;;;2.47;0.10;;;;;;;;;;5278193;28;20017;-69
2022/08/05 14:22:26;;;;;;;1.33;0.10;;;;;;;;;;5277444;28;20020;-68
2022/08/05 14:24:57;;;;;;;0.95;0.10;;;;;;;;;;5273100;28;20024;-68
2022/08/05 14:27:28;;;;;;;2.43;0.10;;;;;;;;;;5276801;28;20036;-69
2022/08/05 14:30:00;;;;;;;1.45;0.10;;;;;;;;;;5276759;28;20032;-69
2022/08/05 14:32:31;;;;;;;2.47;0.30;;;;;;;;;;5276729;28;20094;-69
2022/08/05 14:35:03;;;;;;;4.20;0.20;;;;;;;;;;5277285;28;20028;-70
2022/08/05 14:37:34;;;;;;;2.75;0.10;;;;;;;;;;5275918;28;20021;-70
2022/08/05 14:40:05;;;;;;;1.67;0.10;;;;;;;;;;5277249;28;20025;-69
2022/08/05 14:42:36;;;;;;;0.90;0.10;;;;;;;;;;5262308;28;20325;-70
2022/08/05 14:45:08;;;;;;;1.98;0.10;;;;;;;;;;5259371;28;20191;-69
2022/08/05 14:47:40;;;;;;;0.43;0.10;;;;;;;;;;5246873;28;20364;-69
2022/08/05 14:50:11;;;;;;;2.27;0.10;;;;;;;;;;5241655;28;20080;-70
2022/08/05 14:52:42;;;;;;;2.20;0.10;;;;;;;;;;5246386;28;20343;-70
2022/08/05 14:55:13;;;;;;;2.10;0.10;;;;;;;;;;5241565;28;20110;-69
2022/08/05 14:57:44;;;;;;;1.00;0.10;;;;;;;;;;5240997;28;20658;-70
2022/08/05 15:00:16;;;;;;;4.32;0.10;;;;;;;;;;5240727;28;20013;-70
2022/08/05 15:02:47;;;;;;;2.83;0.20;;;;;;;;;;5240939;28;20017;-69
2022/08/05 15:05:18;;;;;;;1.77;0.25;;;;;;;;;;5240606;28;20022;-71
2022/08/05 15:07:50;;;;;;;1.55;0.13;;;;;;;;;;5241053;28;20013;-68
2022/08/05 15:10:21;;;;;;;1.23;0.20;;;;;;;;;;5240639;28;20112;-68
2022/08/05 15:12:52;;;;;;;3.53;0.10;;;;;;;;;;5240567;28;20481;-70
2022/08/05 15:15:23;;;;;;;1.08;0.10;;;;;;;;;;5240447;28;20423;-70
2022/08/05 15:17:54;;;;;;;2.17;0.20;;;;;;;;;;5241628;28;20379;-71
2022/08/05 15:20:25;;;;;;;2.23;0.20;;;;;;;;;;5239961;28;20109;-70
2022/08/05 15:23:03;;;;;;;3.00;0.20;;;;;;;;;;5241221;28;20626;-70
2022/08/05 15:25:35;;;;;;;0.40;0.10;;;;;;;;;;5240947;28;20264;-71
2022/08/05 15:28:06;;;;;;;1.05;0.10;;;;;;;;;;5240277;28;20275;-71
2022/08/05 15:30:37;;;;;;;1.17;0.10;;;;;;;;;;5240281;28;20029;-71
2022/08/05 15:33:09;;;;;;;2.40;0.10;;;;;;;;;;5240866;28;20108;-71